createdAt,value
2023-12-27T00:01:57.933Z,7.70
2023-12-27T00:04:26.266Z,7.90
2023-12-27T00:06:58.241Z,6.60
2023-12-27T00:09:26.619Z,7.80
2023-12-27T00:11:54.956Z,7.80
2023-12-27T00:14:26.637Z,6.40
2023-12-27T00:16:54.908Z,7.00
2023-12-27T00:19:24.877Z,7.00
2023-12-27T00:21:53.270Z,7.70
2023-12-27T00:24:21.627Z,7.60
2023-12-27T00:26:49.837Z,7.00
2023-12-27T00:29:18.313Z,7.00
2023-12-27T00:31:48.327Z,8.10
2023-12-27T00:34:19.193Z,7.00
2023-12-27T00:36:49.012Z,6.90
2023-12-27T00:39:25.457Z,7.90
2023-12-27T00:41:54.799Z,7.00
2023-12-27T00:44:23.416Z,6.90
2023-12-27T00:46:58.039Z,8.00
2023-12-27T00:49:26.454Z,6.90
2023-12-27T00:51:56.371Z,8.20
2023-12-27T00:54:24.782Z,7.80
2023-12-27T00:56:53.377Z,7.00
2023-12-27T00:59:23.787Z,7.60
2023-12-27T01:01:52.416Z,7.50
2023-12-27T01:04:20.774Z,8.20
2023-12-27T01:06:49.191Z,8.00
2023-12-27T01:09:22.776Z,8.30
2023-12-27T01:11:51.456Z,7.60
2023-12-27T01:14:20.430Z,6.90
2023-12-27T01:16:48.923Z,8.00
2023-12-27T01:19:19.764Z,7.40
2023-12-27T01:21:52.427Z,7.20
2023-12-27T01:24:23.599Z,7.90
2023-12-27T01:26:53.294Z,7.80
2023-12-27T01:29:21.775Z,7.10
2023-12-27T01:31:50.182Z,7.40
2023-12-27T01:34:23.605Z,7.70
2023-12-27T01:37:01.017Z,6.90
2023-12-27T01:39:35.540Z,7.60
2023-12-27T01:42:13.090Z,8.40
2023-12-27T01:44:52.531Z,7.60
2023-12-27T01:47:21.387Z,7.60
2023-12-27T01:49:52.506Z,7.70
2023-12-27T01:52:41.754Z,7.70
2023-12-27T01:55:20.141Z,7.50
2023-12-27T01:57:55.772Z,7.00
2023-12-27T02:00:31.945Z,7.50
2023-12-27T02:03:01.189Z,6.80
2023-12-27T02:05:34.259Z,7.00
2023-12-27T02:08:14.722Z,6.30
2023-12-27T02:10:58.107Z,7.30
2023-12-27T02:13:29.591Z,7.30
2023-12-27T02:15:58.605Z,7.80
2023-12-27T02:18:32.202Z,8.20
2023-12-27T02:21:05.347Z,6.40
2023-12-27T02:23:36.680Z,7.00
2023-12-27T02:26:10.765Z,7.90
2023-12-27T02:28:45.218Z,6.60
2023-12-27T02:31:21.063Z,7.10
2023-12-27T02:34:05.578Z,7.40
2023-12-27T02:36:36.501Z,7.20
2023-12-27T02:39:07.630Z,7.10
2023-12-27T02:41:44.586Z,7.90
2023-12-27T02:44:16.383Z,7.90
2023-12-27T02:46:46.647Z,7.70
2023-12-27T02:49:21.477Z,7.10
2023-12-27T02:51:55.823Z,7.50
2023-12-27T02:54:26.034Z,7.80
2023-12-27T02:57:02.727Z,7.80
2023-12-27T02:59:33.494Z,7.60
2023-12-27T03:02:05.192Z,7.90
2023-12-27T03:04:34.113Z,6.60
2023-12-27T03:07:04.066Z,6.50
2023-12-27T03:09:37.036Z,8.20
2023-12-27T03:12:14.236Z,7.20
2023-12-27T03:14:42.761Z,7.10
2023-12-27T03:17:11.194Z,7.50
2023-12-27T03:19:39.854Z,7.70
2023-12-27T03:22:11.860Z,7.70
2023-12-27T03:24:48.129Z,8.20
2023-12-27T03:27:19.370Z,7.90
2023-12-27T03:29:49.046Z,7.10
2023-12-27T03:32:18.535Z,8.10
2023-12-27T03:34:46.993Z,7.20
2023-12-27T03:37:16.314Z,7.20
2023-12-27T03:39:46.695Z,7.20
2023-12-27T03:42:24.211Z,8.20
2023-12-27T03:45:00.957Z,7.30
2023-12-27T03:47:39.643Z,7.20
2023-12-27T03:50:16.588Z,8.10
2023-12-27T03:52:46.502Z,7.20
2023-12-27T03:55:16.337Z,7.70
2023-12-27T03:57:48.998Z,7.40
2023-12-27T04:00:18.567Z,8.00
2023-12-27T04:02:47.866Z,7.10
2023-12-27T04:05:25.192Z,7.70
2023-12-27T04:07:54.155Z,7.90
2023-12-27T04:10:27.133Z,7.60
2023-12-27T04:12:58.847Z,7.70
2023-12-27T04:15:29.296Z,6.10
2023-12-27T04:18:04.429Z,7.10
2023-12-27T04:20:36.134Z,7.30
2023-12-27T04:23:08.182Z,8.00
2023-12-27T04:25:44.660Z,7.10
2023-12-27T04:28:36.035Z,8.60
2023-12-27T04:31:07.136Z,7.00
2023-12-27T04:33:46.509Z,7.50
2023-12-27T04:36:18.012Z,7.20
2023-12-27T04:39:16.079Z,7.10
2023-12-27T04:41:45.923Z,8.20
2023-12-27T04:44:24.307Z,7.60
2023-12-27T04:47:10.143Z,7.30
2023-12-27T04:49:40.597Z,8.60
2023-12-27T04:52:11.196Z,8.20
2023-12-27T04:54:39.771Z,8.20
2023-12-27T04:57:10.167Z,7.30
2023-12-27T04:59:41.824Z,7.30
2023-12-27T05:02:10.677Z,8.10
2023-12-27T05:04:47.064Z,8.00
2023-12-27T05:08:00.887Z,8.60
2023-12-27T05:17:48.561Z,7.60
2023-12-27T05:24:04.252Z,7.50
2023-12-27T05:30:08.950Z,7.10
2023-12-27T05:33:46.134Z,8.10
2023-12-27T05:37:39.077Z,7.50
2023-12-27T05:40:07.656Z,7.00
2023-12-27T05:43:07.116Z,7.40
2023-12-27T05:49:46.117Z,7.60
2023-12-27T05:59:22.132Z,7.60
2023-12-27T06:02:23.133Z,8.50
2023-12-27T06:08:28.290Z,7.70
2023-12-27T06:14:45.046Z,7.70
2023-12-27T06:18:19.494Z,8.40
2023-12-27T06:25:17.334Z,7.60
2023-12-27T06:43:31.909Z,7.70
2023-12-27T06:46:40.608Z,7.70
2023-12-27T07:38:49.592Z,7.50
2023-12-27T07:41:20.024Z,8.00
2023-12-27T07:43:48.513Z,8.00
2023-12-27T07:46:17.377Z,7.60
2023-12-27T07:48:46.450Z,8.90
2023-12-27T07:51:15.031Z,9.40
2023-12-27T07:53:43.569Z,9.60
2023-12-27T07:56:13.807Z,8.20
2023-12-27T07:58:43.611Z,9.30
2023-12-27T08:01:11.813Z,8.30
2023-12-27T08:03:40.898Z,8.60
2023-12-27T08:06:09.601Z,9.00
2023-12-27T08:08:41.066Z,8.20
2023-12-27T08:11:09.679Z,9.10
2023-12-27T08:13:39.515Z,8.30
2023-12-27T08:16:10.992Z,8.30
2023-12-27T08:18:40.057Z,9.00
2023-12-27T08:21:11.036Z,8.40
2023-12-27T08:23:44.341Z,8.90
2023-12-27T08:26:28.738Z,9.00
2023-12-27T08:29:00.625Z,8.60
2023-12-27T08:31:32.457Z,8.30
2023-12-27T08:34:04.248Z,9.70
2023-12-27T08:36:47.945Z,9.50
2023-12-27T08:39:16.195Z,9.10
2023-12-27T08:41:44.545Z,9.60
2023-12-27T08:44:13.718Z,8.90
2023-12-27T08:46:43.370Z,9.30
2023-12-27T08:49:26.345Z,9.70
2023-12-27T08:51:56.645Z,8.90
2023-12-27T09:18:38.015Z,9.50
2023-12-27T09:21:07.566Z,10.20
2023-12-27T09:23:35.751Z,9.50
2023-12-27T09:26:04.076Z,10.40
2023-12-27T09:28:32.773Z,9.70
2023-12-27T09:31:01.038Z,9.70
2023-12-27T09:33:29.485Z,9.80
2023-12-27T09:35:59.658Z,10.30
2023-12-27T09:38:27.900Z,9.90
2023-12-27T09:40:56.887Z,10.50
2023-12-27T09:43:26.400Z,9.90
2023-12-27T09:45:56.804Z,10.10
2023-12-27T09:48:27.649Z,10.50
2023-12-27T09:50:59.733Z,10.30
2023-12-27T09:53:28.433Z,11.50
2023-12-27T09:55:58.233Z,10.80
2023-12-27T09:58:28.774Z,11.20
2023-12-27T10:01:00.071Z,11.30
2023-12-27T10:03:42.021Z,11.00
2023-12-27T10:12:24.041Z,10.30
2023-12-27T10:15:00.823Z,10.30
2023-12-27T10:17:51.705Z,10.20
2023-12-27T10:21:09.735Z,10.30
2023-12-27T10:27:37.566Z,9.90
2023-12-27T10:30:40.751Z,10.30
2023-12-27T10:36:16.730Z,10.80
2023-12-27T10:42:32.308Z,10.90
2023-12-27T10:46:08.054Z,10.50
2023-12-27T10:49:18.790Z,10.50
2023-12-27T10:51:58.301Z,10.60
2023-12-27T10:58:12.960Z,10.10
2023-12-27T11:01:16.321Z,10.60
2023-12-27T11:04:07.160Z,10.60
2023-12-27T11:06:44.873Z,10.60
2023-12-27T11:09:15.504Z,10.70
2023-12-27T11:11:47.999Z,11.30
2023-12-27T11:14:27.766Z,10.90
2023-12-27T11:17:04.117Z,11.80
2023-12-27T11:19:40.618Z,10.70
2023-12-27T11:22:16.343Z,11.30
2023-12-27T11:24:48.718Z,11.70
2023-12-27T11:27:20.067Z,11.60
2023-12-27T11:29:48.994Z,9.40
2023-12-27T11:32:18.427Z,11.90
2023-12-27T11:35:27.706Z,11.00
2023-12-27T11:38:15.435Z,11.60
2023-12-27T11:40:53.658Z,11.10
2023-12-27T11:43:24.156Z,11.60
2023-12-27T11:46:01.997Z,11.50
2023-12-27T11:48:48.632Z,10.40
2023-12-27T11:51:41.785Z,11.40
2023-12-27T11:58:55.423Z,10.90
2023-12-27T12:05:34.624Z,10.90
2023-12-27T12:08:34.155Z,11.40
2023-12-27T12:11:15.604Z,10.70
2023-12-27T12:13:50.191Z,11.10
2023-12-27T12:16:40.974Z,11.40
2023-12-27T12:19:31.692Z,11.80
2023-12-27T12:22:05.610Z,11.20
2023-12-27T12:25:18.312Z,11.30
2023-12-27T12:28:36.345Z,11.10
2023-12-27T12:35:14.134Z,11.00
2023-12-27T12:52:50.843Z,11.30
2023-12-27T12:59:10.015Z,11.60
2023-12-27T13:01:47.651Z,11.40
2023-12-27T13:05:09.723Z,11.30
2023-12-27T13:11:07.048Z,12.50
2023-12-27T13:21:01.603Z,11.30
2023-12-27T13:27:15.855Z,11.30
2023-12-27T13:30:08.980Z,12.10
2023-12-27T13:37:29.438Z,11.40
2023-12-27T13:40:56.036Z,11.80
2023-12-27T13:44:06.826Z,12.00
2023-12-27T13:47:05.969Z,11.30
2023-12-27T13:50:40.971Z,11.90
2023-12-27T13:57:02.004Z,11.60
2023-12-27T13:59:33.666Z,10.20
2023-12-27T14:02:03.069Z,12.20
2023-12-27T14:04:43.783Z,11.00
2023-12-27T14:08:20.306Z,11.80
2023-12-27T14:12:13.367Z,11.20
2023-12-27T14:19:20.757Z,10.60
2023-12-27T15:16:04.928Z,11.20
2023-12-27T15:19:02.309Z,10.90
2023-12-27T15:22:18.986Z,10.70
2023-12-27T15:25:14.224Z,10.70
2023-12-27T15:35:01.932Z,11.00
2023-12-27T15:48:36.352Z,10.90
2023-12-27T15:55:19.904Z,11.20
2023-12-27T16:01:59.482Z,10.80
2023-12-27T16:21:46.364Z,10.30
2023-12-27T16:26:47.674Z,11.30
2023-12-27T16:29:20.385Z,11.90
2023-12-27T16:33:10.723Z,10.60
2023-12-27T16:36:00.093Z,9.70
2023-12-27T16:39:22.735Z,10.10
2023-12-27T16:49:58.136Z,10.50
2023-12-27T16:56:31.790Z,10.50
2023-12-27T16:59:16.469Z,11.10
2023-12-27T17:02:06.480Z,10.50
2023-12-27T17:12:10.880Z,9.90
2023-12-27T17:57:42.518Z,10.50
2023-12-27T18:00:55.701Z,10.60
2023-12-27T18:04:05.260Z,10.20
2023-12-27T18:10:43.305Z,10.60
2023-12-27T18:13:42.399Z,10.60
2023-12-27T18:16:51.487Z,10.60
2023-12-27T18:24:13.951Z,11.10
2023-12-27T19:10:51.998Z,10.80
2023-12-27T19:34:14.135Z,10.60
2023-12-27T19:36:45.337Z,10.70
2023-12-27T19:42:29.122Z,10.60
2023-12-27T19:42:47.370Z,10.90
2023-12-27T19:45:22.248Z,10.30
2023-12-27T19:47:53.765Z,10.70
2023-12-27T19:50:22.274Z,11.20
2023-12-27T19:52:53.572Z,11.20
2023-12-27T19:55:29.331Z,11.00
2023-12-27T19:58:12.789Z,11.40
2023-12-27T20:00:41.196Z,11.40
2023-12-27T20:03:20.759Z,11.30
2023-12-27T20:06:09.762Z,12.00
2023-12-27T20:09:06.531Z,10.50
2023-12-27T20:11:59.444Z,10.50
2023-12-27T20:14:38.312Z,10.60
2023-12-27T20:17:10.765Z,11.00
2023-12-27T20:19:47.779Z,9.30
2023-12-27T20:22:38.297Z,10.60
2023-12-27T20:25:34.436Z,11.30
2023-12-27T20:28:09.085Z,10.60
2023-12-27T20:30:45.866Z,10.60
2023-12-27T20:33:20.480Z,11.80
2023-12-27T20:36:10.255Z,11.20
2023-12-27T20:39:04.128Z,10.80
2023-12-27T20:41:54.684Z,11.70
2023-12-27T20:47:34.209Z,11.10
2023-12-27T20:50:13.181Z,11.20
2023-12-27T20:52:48.786Z,11.40
2023-12-27T20:55:23.406Z,11.10
2023-12-27T20:58:05.663Z,12.40
2023-12-27T21:00:36.062Z,11.80
2023-12-27T21:03:10.190Z,11.20
2023-12-27T21:05:41.163Z,12.10
2023-12-27T21:08:20.307Z,11.20
2023-12-27T21:11:16.680Z,11.30
2023-12-27T21:14:14.151Z,11.70
2023-12-27T21:17:18.728Z,11.60
2023-12-27T21:20:29.184Z,11.10
2023-12-27T21:27:34.066Z,10.60
2023-12-27T21:33:58.796Z,11.40
2023-12-27T21:37:03.169Z,11.90
2023-12-27T21:43:28.369Z,11.70
2023-12-27T21:46:22.287Z,11.50
2023-12-27T21:55:43.084Z,11.70
2023-12-27T21:58:47.859Z,13.00
2023-12-27T22:02:05.555Z,11.10
2023-12-27T22:05:56.796Z,11.90
2023-12-27T22:08:31.019Z,12.10
2023-12-27T22:11:03.150Z,11.50
2023-12-27T22:14:22.339Z,12.10
2023-12-27T22:17:39.023Z,11.20
2023-12-27T22:23:04.374Z,11.50
2023-12-27T22:25:53.184Z,11.60
2023-12-27T22:28:26.839Z,13.10
2023-12-27T22:31:26.562Z,12.90
2023-12-27T22:34:16.110Z,11.40
2023-12-27T22:40:16.976Z,11.50
2023-12-27T22:42:45.391Z,11.90
2023-12-27T22:45:28.855Z,12.20
2023-12-27T22:48:02.785Z,12.10
2023-12-27T22:50:33.478Z,11.20
2023-12-27T22:53:10.838Z,11.80
2023-12-27T22:56:03.339Z,11.10
2023-12-27T22:58:42.064Z,12.70
2023-12-27T23:01:39.294Z,11.90
2023-12-27T23:05:06.215Z,11.90
2023-12-27T23:11:02.129Z,12.10
2023-12-27T23:13:54.465Z,11.30
2023-12-27T23:17:27.322Z,12.90
2023-12-27T23:20:33.124Z,11.70
2023-12-27T23:23:05.437Z,12.60
2023-12-27T23:25:37.994Z,11.90
2023-12-27T23:28:25.470Z,12.30
2023-12-27T23:31:01.961Z,12.40
2023-12-27T23:33:37.056Z,12.00
2023-12-27T23:36:14.011Z,12.50
2023-12-27T23:38:48.330Z,12.60
2023-12-27T23:41:17.003Z,12.70
2023-12-27T23:43:47.157Z,10.60
2023-12-27T23:46:16.284Z,11.90
2023-12-27T23:48:53.471Z,12.50
2023-12-27T23:51:31.289Z,12.50
2023-12-27T23:54:05.554Z,12.90
2023-12-27T23:56:33.785Z,12.90
2023-12-27T23:59:05.272Z,11.80
